createdAt,value
2018-10-03T00:00:40.068Z,101138.29
2018-10-03T00:03:09.254Z,101146.78
2018-10-03T00:05:38.439Z,101149.66
2018-10-03T00:08:07.630Z,101145.13
2018-10-03T00:10:36.759Z,101150.28
2018-10-03T00:13:05.937Z,101158.23
2018-10-03T00:15:35.110Z,101159.27
2018-10-03T00:18:04.681Z,101158.14
2018-10-03T00:20:33.856Z,101165.80
2018-10-03T00:23:03.018Z,101169.01
2018-10-03T00:25:32.179Z,101167.76
2018-10-03T00:28:01.331Z,101178.36
2018-10-03T00:30:30.486Z,101187.81
2018-10-03T00:32:59.620Z,101181.78
2018-10-03T00:35:28.764Z,101192.98
2018-10-03T00:37:57.928Z,101197.19
2018-10-03T00:40:27.100Z,101205.14
2018-10-03T00:42:56.291Z,101202.02
2018-10-03T00:45:25.483Z,101216.34
2018-10-03T00:47:54.600Z,101208.81
2018-10-03T00:50:23.721Z,101205.14
2018-10-03T00:52:52.894Z,101205.14
2018-10-03T00:55:22.057Z,101208.73
2018-10-03T00:57:51.248Z,101217.00
2018-10-03T01:00:20.458Z,101212.44
2018-10-03T01:02:49.640Z,101215.57
2018-10-03T01:05:19.133Z,101209.89
2018-10-03T01:07:48.445Z,101192.97
2018-10-03T01:10:17.595Z,101198.03
2018-10-03T01:12:46.745Z,101202.86
2018-10-03T01:15:15.905Z,101188.72
2018-10-03T01:17:45.017Z,101194.68
2018-10-03T01:20:14.202Z,101195.12
2018-10-03T01:22:43.347Z,101196.37
2018-10-03T01:25:12.534Z,101202.36
2018-10-03T01:27:41.693Z,101208.11
2018-10-03T01:30:11.590Z,101203.98
2018-10-03T01:32:40.719Z,101210.33
2018-10-03T01:35:09.974Z,101204.43
2018-10-03T01:37:39.171Z,101207.64
2018-10-03T01:40:08.278Z,101214.59
2018-10-03T01:42:37.396Z,101228.76
2018-10-03T01:45:06.629Z,101225.98
2018-10-03T01:47:35.808Z,101232.69
2018-10-03T01:50:05.318Z,101234.44
2018-10-03T01:52:34.540Z,101237.47
2018-10-03T01:55:03.769Z,101240.59
2018-10-03T01:57:32.888Z,101246.45
2018-10-03T02:00:02.067Z,101245.21
2018-10-03T02:02:31.209Z,101245.14
2018-10-03T02:05:00.337Z,101241.87
2018-10-03T02:07:29.520Z,101243.61
2018-10-03T02:09:58.768Z,101241.02
2018-10-03T02:12:27.933Z,101244.36
2018-10-03T02:14:57.663Z,101237.55
2018-10-03T02:17:26.852Z,101241.77
2018-10-03T02:19:56.032Z,101229.22
2018-10-03T02:22:25.274Z,101232.30
2018-10-03T02:24:54.424Z,101234.30
2018-10-03T02:27:23.607Z,101232.55
2018-10-03T02:29:52.761Z,101236.48
2018-10-03T02:32:21.943Z,101237.09
2018-10-03T02:34:51.221Z,101237.53
2018-10-03T02:37:20.364Z,101239.20
2018-10-03T02:39:49.733Z,101247.24
2018-10-03T02:42:18.869Z,101246.30
2018-10-03T02:44:48.213Z,101236.42
2018-10-03T02:47:17.425Z,101240.54
2018-10-03T02:49:46.605Z,101230.63
2018-10-03T02:52:15.847Z,101230.09
2018-10-03T02:54:45.024Z,101225.80
2018-10-03T02:57:14.201Z,101234.86
2018-10-03T02:59:43.413Z,101240.34
2018-10-03T03:02:12.641Z,101237.66
2018-10-03T03:04:41.853Z,101242.81
2018-10-03T03:07:11.068Z,101246.30
2018-10-03T03:09:40.363Z,101251.16
2018-10-03T03:12:09.526Z,101255.09
2018-10-03T03:14:38.747Z,101254.55
2018-10-03T03:17:07.916Z,101259.30
2018-10-03T03:19:37.085Z,101256.62
2018-10-03T03:22:06.331Z,101261.97
2018-10-03T03:24:35.482Z,101261.22
2018-10-03T03:27:04.679Z,101258.85
2018-10-03T03:29:33.907Z,101262.88
2018-10-03T03:32:03.139Z,101268.66
2018-10-03T03:34:32.434Z,101275.14
2018-10-03T03:37:01.675Z,101273.49
2018-10-03T03:39:30.954Z,101277.52
2018-10-03T03:42:00.117Z,101279.07
2018-10-03T03:44:29.348Z,101282.88
2018-10-03T03:46:58.528Z,101295.80
2018-10-03T03:49:27.763Z,101289.19
2018-10-03T03:51:57.148Z,101290.41
2018-10-03T03:54:26.334Z,101290.52
2018-10-03T03:56:55.546Z,101295.66
2018-10-03T03:59:24.792Z,101296.48
2018-10-03T04:01:54.029Z,101304.03
2018-10-03T04:04:23.320Z,101307.84
2018-10-03T04:06:52.514Z,101318.35
2018-10-03T04:09:21.797Z,101332.61
2018-10-03T04:11:51.404Z,101334.77
2018-10-03T04:14:20.607Z,101345.81
2018-10-03T04:16:49.826Z,101350.25
2018-10-03T04:19:19.076Z,101362.83
2018-10-03T04:21:48.319Z,101364.27
2018-10-03T04:24:17.466Z,101362.92
2018-10-03T04:26:46.763Z,101370.27
2018-10-03T04:29:15.951Z,101374.98
2018-10-03T04:31:45.085Z,101374.70
2018-10-03T04:34:14.318Z,101383.24
2018-10-03T04:36:43.462Z,101366.75
2018-10-03T04:39:12.626Z,101365.39
2018-10-03T04:41:41.810Z,101365.02
2018-10-03T04:44:11.100Z,101356.55
2018-10-03T04:46:40.257Z,101359.14
2018-10-03T04:49:09.433Z,101360.17
2018-10-03T04:51:38.497Z,101351.61
2018-10-03T04:54:07.722Z,101367.70
2018-10-03T04:56:36.911Z,101365.62
2018-10-03T04:59:06.240Z,101361.59
2018-10-03T05:01:35.434Z,101375.53
2018-10-03T05:04:04.578Z,101370.38
2018-10-03T05:06:33.714Z,101380.08
2018-10-03T05:09:03.147Z,101373.66
2018-10-03T05:11:32.316Z,101381.70
2018-10-03T05:14:01.476Z,101388.63
2018-10-03T05:16:30.709Z,101390.81
2018-10-03T05:18:59.896Z,101388.34
2018-10-03T05:21:29.080Z,101392.36
2018-10-03T05:23:58.674Z,101397.41
2018-10-03T05:26:27.906Z,101393.39
2018-10-03T05:28:57.166Z,101403.16
2018-10-03T05:31:26.309Z,101409.05
2018-10-03T05:33:55.773Z,101401.83
2018-10-03T05:36:25.093Z,101394.62
2018-10-03T05:38:54.258Z,101402.14
2018-10-03T05:41:23.628Z,101400.09
2018-10-03T05:43:52.908Z,101419.78
2018-10-03T05:46:22.176Z,101412.80
2018-10-03T05:48:51.452Z,101423.91
2018-10-03T05:51:20.635Z,101430.02
2018-10-03T05:53:49.875Z,101439.50
2018-10-03T05:56:19.064Z,101432.50
2018-10-03T05:58:48.305Z,101443.02
2018-10-03T06:01:17.496Z,101452.19
2018-10-03T06:03:46.707Z,101447.36
2018-10-03T06:06:15.877Z,101445.70
2018-10-03T06:08:45.111Z,101449.83
2018-10-03T06:11:14.311Z,101464.59
2018-10-03T06:13:43.513Z,101470.06
2018-10-03T06:16:12.687Z,101476.14
2018-10-03T06:18:41.889Z,101478.13
2018-10-03T06:21:11.212Z,101487.20
2018-10-03T06:23:40.471Z,101486.89
2018-10-03T06:26:09.723Z,101489.25
2018-10-03T06:28:39.918Z,101489.25
2018-10-03T06:31:09.480Z,101505.39
2018-10-03T06:33:38.722Z,101499.59
2018-10-03T06:36:08.211Z,101506.83
2018-10-03T06:38:37.346Z,101510.42
2018-10-03T06:41:06.578Z,101520.85
2018-10-03T06:43:35.729Z,101532.53
2018-10-03T06:46:05.010Z,101536.24
2018-10-03T06:48:34.243Z,101540.38
2018-10-03T06:51:03.557Z,101545.53
2018-10-03T06:53:32.719Z,101555.67
2018-10-03T06:56:01.971Z,101570.23
2018-10-03T06:58:31.295Z,101574.87
2018-10-03T07:01:00.512Z,101577.06
2018-10-03T07:03:29.702Z,101584.06
2018-10-03T07:05:58.885Z,101584.91
2018-10-03T07:08:28.126Z,101596.78
2018-10-03T07:10:57.352Z,101595.86
2018-10-03T07:13:26.553Z,101598.02
2018-10-03T07:15:55.840Z,101599.14
2018-10-03T07:18:25.134Z,101604.13
2018-10-03T07:20:54.300Z,101619.39
2018-10-03T07:23:23.624Z,101620.13
2018-10-03T07:25:52.844Z,101624.88
2018-10-03T07:28:22.189Z,101621.48
2018-10-03T07:30:51.653Z,101631.91
2018-10-03T07:33:20.901Z,101638.02
2018-10-03T07:35:50.303Z,101638.30
2018-10-03T07:38:19.538Z,101641.02
2018-10-03T07:40:49.826Z,101652.37
2018-10-03T07:43:19.100Z,101655.90
2018-10-03T07:45:48.380Z,101652.58
2018-10-03T07:48:17.600Z,101656.92
2018-10-03T07:50:46.853Z,101657.03
2018-10-03T07:53:16.072Z,101664.98
2018-10-03T07:55:45.273Z,101666.94
2018-10-03T07:58:14.572Z,101675.62
2018-10-03T08:00:43.746Z,101678.53
2018-10-03T08:03:14.312Z,101681.50
2018-10-03T08:05:47.256Z,101683.80
2018-10-03T08:08:16.472Z,101685.95
2018-10-03T08:10:45.708Z,101685.77
2018-10-03T08:13:14.833Z,101693.63
2018-10-03T08:15:44.229Z,101694.85
2018-10-03T08:18:13.344Z,101703.02
2018-10-03T08:20:42.572Z,101708.11
2018-10-03T08:23:11.745Z,101715.34
2018-10-03T08:25:40.934Z,101715.77
2018-10-03T08:28:10.592Z,101721.96
2018-10-03T08:30:39.874Z,101722.67
2018-10-03T08:33:09.248Z,101735.80
2018-10-03T08:35:38.597Z,101737.95
2018-10-03T08:38:07.797Z,101738.66
2018-10-03T08:40:37.084Z,101753.50
2018-10-03T08:43:07.578Z,101754.80
2018-10-03T08:45:36.831Z,101745.30
2018-10-03T08:48:05.996Z,101742.52
2018-10-03T08:50:35.227Z,101762.41
2018-10-03T08:53:04.456Z,101771.02
2018-10-03T08:55:33.600Z,101777.69
2018-10-03T08:58:03.811Z,101779.44
2018-10-03T09:00:33.072Z,101779.88
2018-10-03T09:03:02.214Z,101778.02
2018-10-03T09:05:31.399Z,101783.05
2018-10-03T09:08:11.826Z,101797.42
2018-10-03T09:10:42.611Z,101798.64
2018-10-03T09:13:12.315Z,101800.14
2018-10-03T09:15:41.464Z,101809.71
2018-10-03T09:18:10.751Z,101803.95
2018-10-03T09:20:39.943Z,101808.70
2018-10-03T09:23:09.141Z,101804.30
2018-10-03T09:25:38.277Z,101823.45
2018-10-03T09:28:07.650Z,101827.19
2018-10-03T09:30:36.886Z,101828.41
2018-10-03T09:33:06.040Z,101830.66
2018-10-03T09:35:35.216Z,101821.78
2018-10-03T09:38:04.400Z,101825.19
2018-10-03T09:40:33.599Z,101827.73
2018-10-03T09:43:02.717Z,101839.44
2018-10-03T09:45:31.884Z,101832.12
2018-10-03T09:48:01.070Z,101832.73
2018-10-03T09:50:30.312Z,101835.17
2018-10-03T09:52:59.620Z,101837.60
2018-10-03T09:55:28.755Z,101832.91
2018-10-03T09:57:57.949Z,101839.58
2018-10-03T10:00:32.289Z,101853.94
2018-10-03T10:03:01.398Z,101853.81
2018-10-03T10:05:30.600Z,101861.84
2018-10-03T10:07:59.705Z,101865.88
2018-10-03T10:10:28.914Z,101864.39
2018-10-03T10:12:58.047Z,101874.27
2018-10-03T10:15:27.189Z,101886.84
2018-10-03T10:17:56.365Z,101892.83
2018-10-03T10:20:25.693Z,101892.14
2018-10-03T10:22:55.579Z,101899.64
2018-10-03T10:25:24.812Z,101884.63
2018-10-03T10:27:53.916Z,101887.73
2018-10-03T10:30:23.080Z,101896.74
2018-10-03T10:32:52.272Z,101885.52
2018-10-03T10:35:21.401Z,101890.21
2018-10-03T10:37:50.742Z,101904.66
2018-10-03T10:40:19.943Z,101907.80
2018-10-03T10:42:49.235Z,101927.25
2018-10-03T10:45:18.379Z,101921.30
2018-10-03T10:47:47.550Z,101934.16
2018-10-03T10:50:16.805Z,101934.62
2018-10-03T10:52:45.892Z,101937.02
2018-10-03T10:55:15.094Z,101931.81
2018-10-03T10:57:44.565Z,101945.48
2018-10-03T11:00:13.776Z,101971.36
2018-10-03T11:02:42.893Z,101956.80
2018-10-03T11:05:12.138Z,101955.56
2018-10-03T11:07:41.319Z,101962.17
2018-10-03T11:10:11.043Z,101965.95
2018-10-03T11:12:40.342Z,101968.75
2018-10-03T11:15:09.429Z,101977.42
2018-10-03T11:17:38.675Z,101988.22
2018-10-03T11:20:08.008Z,101983.99
2018-10-03T11:22:37.452Z,101982.66
2018-10-03T11:25:06.742Z,101980.37
2018-10-03T11:27:35.962Z,101988.23
2018-10-03T11:30:05.608Z,101986.66
2018-10-03T11:32:34.792Z,101984.64
2018-10-03T11:35:04.066Z,101980.16
2018-10-03T11:37:33.264Z,101993.45
2018-10-03T11:40:02.605Z,101984.28
2018-10-03T11:42:31.733Z,101981.74
2018-10-03T11:45:01.133Z,101985.73
2018-10-03T11:47:30.287Z,101983.89
2018-10-03T11:49:59.477Z,101986.52
2018-10-03T11:52:28.726Z,101992.59
2018-10-03T11:54:58.863Z,101995.23
2018-10-03T11:57:28.072Z,101992.80
2018-10-03T11:59:57.408Z,102001.68
2018-10-03T12:02:27.613Z,102000.56
2018-10-03T12:04:56.852Z,102009.02
2018-10-03T12:07:26.059Z,102003.27
2018-10-03T12:09:55.279Z,102007.89
2018-10-03T12:12:24.522Z,102006.34
2018-10-03T12:14:53.732Z,102013.09
2018-10-03T12:17:22.947Z,102006.77
2018-10-03T12:19:52.100Z,102022.95
2018-10-03T12:22:21.233Z,102034.45
2018-10-03T12:24:50.547Z,102045.97
2018-10-03T12:27:19.721Z,102053.19
2018-10-03T12:29:48.866Z,102056.97
2018-10-03T12:32:18.636Z,102056.33
2018-10-03T12:34:47.857Z,102048.17
2018-10-03T12:37:17.082Z,102049.48
2018-10-03T12:39:46.260Z,102054.00
2018-10-03T12:42:15.492Z,102043.22
2018-10-03T12:44:44.653Z,102041.93
2018-10-03T12:47:13.891Z,102043.47
2018-10-03T12:49:43.094Z,102051.77
2018-10-03T12:52:12.249Z,102042.51
2018-10-03T12:54:41.532Z,102053.55
2018-10-03T12:57:10.639Z,102046.16
2018-10-03T12:59:39.863Z,102053.83
2018-10-03T13:02:09.102Z,102058.48
2018-10-03T13:04:38.527Z,102058.61
2018-10-03T13:07:07.765Z,102054.17
2018-10-03T13:09:37.120Z,102060.88
2018-10-03T13:12:06.531Z,102056.09
2018-10-03T13:14:35.753Z,102057.75
2018-10-03T13:17:05.027Z,102051.73
2018-10-03T13:19:35.229Z,102055.55
2018-10-03T13:22:04.382Z,102062.37
2018-10-03T13:24:33.627Z,102061.20
2018-10-03T13:27:02.692Z,102056.41
2018-10-03T13:29:31.819Z,102064.69
2018-10-03T13:32:01.088Z,102066.62
2018-10-03T13:34:30.167Z,102074.08
2018-10-03T13:36:59.276Z,102075.47
2018-10-03T13:39:28.523Z,102079.23
2018-10-03T13:41:57.616Z,102076.83
2018-10-03T13:44:26.824Z,102078.33
2018-10-03T13:46:56.663Z,102080.80
2018-10-03T13:49:25.759Z,102080.54
2018-10-03T13:51:55.031Z,102075.52
2018-10-03T13:54:24.129Z,102086.88
2018-10-03T13:56:53.303Z,102088.50
2018-10-03T13:59:22.439Z,102085.11
2018-10-03T14:01:52.690Z,102101.22
2018-10-03T14:04:21.909Z,102095.65
2018-10-03T14:06:51.067Z,102101.95
2018-10-03T14:09:20.291Z,102098.05
2018-10-03T14:11:49.520Z,102100.17
2018-10-03T14:14:18.795Z,102101.68
2018-10-03T14:16:47.976Z,102096.42
2018-10-03T14:19:17.159Z,102101.52
2018-10-03T16:09:20.798Z,102167.19
2018-10-03T16:11:50.031Z,102171.52
2018-10-03T16:14:19.339Z,102174.75
2018-10-03T16:16:48.616Z,102182.02
2018-10-03T16:19:17.883Z,102184.72
2018-10-03T16:21:47.087Z,102185.74
2018-10-03T16:24:16.260Z,102183.26
2018-10-03T16:26:45.494Z,102182.00
2018-10-03T16:29:15.691Z,102187.61
2018-10-03T16:31:45.604Z,102182.72
2018-10-03T16:34:14.789Z,102190.81
2018-10-03T16:36:45.015Z,102195.48
2018-10-03T16:39:14.202Z,102199.02
2018-10-03T16:41:43.302Z,102200.57
2018-10-03T16:44:12.481Z,102202.34
2018-10-03T16:46:42.244Z,102204.41
2018-10-03T16:49:11.462Z,102203.60
2018-10-03T16:51:40.700Z,102196.44
2018-10-03T16:54:10.131Z,102206.70
2018-10-03T16:56:39.380Z,102206.81
2018-10-03T16:59:08.684Z,102214.13
2018-10-03T17:01:38.144Z,102217.64
2018-10-03T17:04:07.337Z,102217.03
2018-10-03T17:06:36.803Z,102219.51
2018-10-03T17:09:06.948Z,102220.20
2018-10-03T17:11:36.707Z,102223.59
2018-10-03T17:14:24.383Z,102225.47
2018-10-03T17:16:54.508Z,102230.52
2018-10-03T17:19:23.693Z,102228.62
2018-10-03T17:21:54.559Z,102231.62
2018-10-03T17:24:24.912Z,102233.44
2018-10-03T17:26:54.019Z,102244.83
2018-10-03T17:29:23.205Z,102248.11
2018-10-03T17:31:52.351Z,102242.93
2018-10-03T17:34:21.628Z,102249.95
2018-10-03T17:36:52.172Z,102252.09
2018-10-03T17:39:22.210Z,102248.47
2018-10-03T17:41:51.352Z,102248.23
2018-10-03T17:44:22.216Z,102250.80
2018-10-03T17:46:52.771Z,102247.34
2018-10-03T17:49:22.000Z,102250.44
2018-10-03T17:51:51.203Z,102258.48
2018-10-03T17:54:20.337Z,102260.73
2018-10-03T17:56:50.641Z,102266.31
2018-10-03T17:59:19.871Z,102261.09
2018-10-03T18:01:59.149Z,102259.05
2018-10-03T18:04:28.326Z,102259.30
2018-10-03T18:07:02.276Z,102264.03
2018-10-03T18:09:37.869Z,102272.55
2018-10-03T18:12:13.962Z,102268.44
2018-10-03T18:14:43.709Z,102272.27
2018-10-03T18:17:13.136Z,102276.95
2018-10-03T18:19:42.321Z,102276.87
2018-10-03T18:22:11.615Z,102277.31
2018-10-03T18:24:40.916Z,102278.45
2018-10-03T18:27:10.089Z,102278.20
2018-10-03T18:29:40.280Z,102276.91
2018-10-03T18:32:09.475Z,102270.37
2018-10-03T18:34:38.644Z,102281.59
2018-10-03T18:37:07.874Z,102277.87
2018-10-03T18:39:37.139Z,102285.05
2018-10-03T18:42:06.524Z,102288.47
2018-10-03T18:44:35.746Z,102291.72
2018-10-03T18:47:04.909Z,102290.87
2018-10-03T18:49:34.130Z,102297.34
2018-10-03T18:52:03.438Z,102293.10
2018-10-03T18:54:32.523Z,102286.92
2018-10-03T18:57:01.834Z,102292.20
2018-10-03T18:59:31.072Z,102288.16
2018-10-03T19:02:00.345Z,102287.72
2018-10-03T19:04:29.489Z,102285.34
2018-10-03T19:06:59.885Z,102289.06
2018-10-03T19:09:29.028Z,102289.18
2018-10-03T19:11:58.282Z,102291.44
2018-10-03T19:14:27.449Z,102292.87
2018-10-03T19:16:56.652Z,102291.37
2018-10-03T19:19:25.844Z,102295.91
2018-10-03T19:21:55.122Z,102295.25
2018-10-03T19:24:25.424Z,102298.56
2018-10-03T19:26:54.580Z,102297.13
2018-10-03T19:29:23.848Z,102297.98
2018-10-03T19:31:53.112Z,102299.45
2018-10-03T19:34:22.330Z,102301.63
2018-10-03T19:36:51.605Z,102297.73
2018-10-03T19:39:20.870Z,102301.63
2018-10-03T19:41:50.180Z,102303.11
2018-10-03T19:44:19.402Z,102301.34
2018-10-03T19:46:48.601Z,102292.06
2018-10-03T19:49:17.807Z,102293.94
2018-10-03T19:51:47.096Z,102303.42
2018-10-03T19:54:16.300Z,102312.52
2018-10-03T19:56:45.473Z,102311.50
2018-10-03T19:59:14.686Z,102311.17
2018-10-03T20:01:43.920Z,102307.70
2018-10-03T20:04:13.188Z,102306.48
2018-10-03T20:06:42.368Z,102307.45
2018-10-03T20:09:11.665Z,102303.02
2018-10-03T20:11:40.776Z,102311.56
2018-10-03T20:14:10.019Z,102311.63
2018-10-03T20:16:39.446Z,102315.52
2018-10-03T20:19:08.636Z,102320.80
2018-10-03T20:21:37.836Z,102326.31
2018-10-03T20:24:07.012Z,102324.13
2018-10-03T20:26:36.189Z,102324.23
2018-10-03T20:29:05.370Z,102324.34
2018-10-03T20:31:34.568Z,102330.81
2018-10-03T20:34:03.712Z,102334.51
2018-10-03T20:36:32.863Z,102329.85
2018-10-03T20:39:02.074Z,102327.91
2018-10-03T20:41:31.362Z,102328.97
2018-10-03T20:44:00.496Z,102326.15
2018-10-03T20:46:29.604Z,102322.80
2018-10-03T20:48:58.693Z,102323.70
2018-10-03T20:51:27.776Z,102326.53
2018-10-03T20:53:56.926Z,102324.11
2018-10-03T20:56:26.313Z,102338.78
2018-10-03T20:58:55.446Z,102336.69
2018-10-03T21:01:24.581Z,102337.97
2018-10-03T21:03:53.707Z,102338.73
2018-10-03T21:06:22.979Z,102334.84
2018-10-03T21:08:52.223Z,102339.91
2018-10-03T21:11:21.381Z,102343.65
2018-10-03T21:13:50.517Z,102340.41
2018-10-03T21:16:19.685Z,102347.44
2018-10-03T21:18:48.757Z,102339.06
2018-10-03T21:21:17.919Z,102343.70
2018-10-03T21:23:47.174Z,102339.88
2018-10-03T21:26:16.286Z,102338.53
2018-10-03T21:28:45.460Z,102339.16
2018-10-03T21:31:14.615Z,102339.35
2018-10-03T21:33:43.775Z,102338.72
2018-10-03T21:36:12.898Z,102341.93
2018-10-03T21:38:42.029Z,102349.68
2018-10-03T21:41:11.211Z,102351.84
2018-10-03T21:43:40.448Z,102345.17
2018-10-03T21:46:09.544Z,102343.98
2018-10-03T21:48:38.744Z,102336.98
2018-10-03T21:51:07.893Z,102342.02
2018-10-03T21:53:37.128Z,102341.86
2018-10-03T21:56:06.330Z,102337.33
2018-10-03T21:58:35.538Z,102338.03
2018-10-03T22:01:04.709Z,102335.88
2018-10-03T22:03:33.901Z,102335.20
2018-10-03T22:06:03.021Z,102333.56
2018-10-03T22:08:32.159Z,102337.25
2018-10-03T22:11:01.311Z,102339.30
2018-10-03T22:13:30.544Z,102341.31
2018-10-03T22:15:59.695Z,102337.99
2018-10-03T22:18:28.872Z,102338.33
2018-10-03T22:20:58.114Z,102340.00
2018-10-03T22:23:28.327Z,102336.16
2018-10-03T22:25:57.446Z,102336.31
2018-10-03T22:28:26.555Z,102335.98
2018-10-03T22:30:55.752Z,102340.00
2018-10-03T22:33:24.873Z,102339.00
2018-10-03T22:35:54.064Z,102342.02
2018-10-03T22:38:23.274Z,102342.83
2018-10-03T22:40:52.442Z,102347.04
2018-10-03T22:43:21.580Z,102344.36
2018-10-03T22:45:52.068Z,102352.70
2018-10-03T22:48:21.175Z,102344.29
2018-10-03T22:50:50.340Z,102352.14
2018-10-03T22:53:19.445Z,102345.59
2018-10-03T22:55:48.621Z,102338.33
2018-10-03T22:58:17.755Z,102340.66
2018-10-03T23:00:46.900Z,102343.53
2018-10-03T23:03:16.003Z,102336.75
2018-10-03T23:05:45.127Z,102344.80
2018-10-03T23:08:14.254Z,102339.44
2018-10-03T23:10:43.433Z,102343.80
2018-10-03T23:13:12.585Z,102338.47
2018-10-03T23:15:41.709Z,102342.69
2018-10-03T23:18:10.849Z,102336.84
2018-10-03T23:20:40.083Z,102337.55
2018-10-03T23:23:09.303Z,102335.53
2018-10-03T23:25:38.394Z,102334.87
2018-10-03T23:28:07.568Z,102334.38
2018-10-03T23:30:36.777Z,102334.58
2018-10-03T23:33:05.900Z,102338.33
2018-10-03T23:35:35.048Z,102335.98
2018-10-03T23:38:04.248Z,102341.19
2018-10-03T23:40:33.420Z,102342.53
2018-10-03T23:43:02.661Z,102344.69
2018-10-03T23:45:31.763Z,102347.70
2018-10-03T23:48:01.001Z,102348.08
2018-10-03T23:50:30.559Z,102346.06
2018-10-03T23:52:59.718Z,102346.22
2018-10-03T23:55:28.890Z,102347.70
2018-10-03T23:57:58.028Z,102344.02
